曼谷, 泰國

2014年7月25日 08時33分 (GMT +0700)
Bangkok International (VTBD) 海拔 13 ft | 13.92 °N, 100.61 °E | Change Station

Current weather conditions updated 33 minutes ago

Mostly Cloudy
多雲
84 °F
感覺像 94 °F
6
風 變化 風 來自 西南偏南

今天比昨天 涼爽。 雷雨。。

今日
高 -- | 低 -- °F
--% 降水機率
昨天
高 -- | 低 -- °F
Precip. -- 英寸
6:00 AM 6:48 PM
殘月, 3% visible
氣壓 29.77 英寸
能見度 5.0 英里
多雲 少數 2500 ft
多雲時晴 12000 ft
多雲 30000 ft
高溫指數 94 °F
露點 77 °F
濕度 79%
降雨量 0.00 英寸
積雪深度 不適用。
紫外線 2 / 12
花粉 不適用。
空氣質素 不適用。
Flu Activity 不適用。
METAR VTBD 250100Z 20005KT 170V230 8000 FEW025 SCT120 BKN300 29/25 Q1008 NOSIG

More Conditions Fewer Conditions

氣壓 29.77 英寸
能見度 5.0 英里
多雲 少數 2500 ft
多雲時晴 12000 ft
多雲 30000 ft
高溫指數 94 °F
露點 77 °F
濕度 79%
降雨量 0.00 英寸
積雪深度 不適用。
紫外線 2 / 12
花粉 不適用。
空氣質素 不適用。
Flu Activity 不適用。
METAR VTBD 250100Z 20005KT 170V230 8000 FEW025 SCT120 BKN300 29/25 Q1008 NOSIG

More Conditions Fewer Conditions

10-Day Weather Forecast

Almanac

天文

Jul. 25, 2014 昇起 降落
實際時間 06:00 ICT 18:48 ICT
民用曙暮光 05:37 ICT 19:10 ICT
航海曙暮光 05:10 ICT 19:37 ICT
天文學微明 04:43 ICT 20:05 ICT
月亮 04:28 ICT 17:29 ICT
可見光的長度 13h 33m
白晝時間
12h 47m
Tomorrow will be 0m 30s shorter.
殘月, 3% of the Moon is Illuminated
7月 24
殘月
7月 26
8月 3
第一季
8月 10
滿月
8月 17
第四季

昨天之最

國家高溫 國家低溫

Community

WunderPhotos

Upload Photos

1,737,184 照片已上傳!

Nearby

積雪量

Not available.

地震活動

城市 距離 時間和日期
附近沒有最近發生的地震活動。
顯示的最小幅度是2.5。

沿海水溫

地點 溫度
無任何天氣監測站報告

附近的氣象站

氣象站位置 溫度 高溫指數 露點 濕度 Precip. 海拔 最近更新時間 類型
Patumwan Demonstration School, Bangkok 84.9 °F 94 °F 75 °F 73% 西南偏南  風  11.0 英里每小時 0.00 英寸 / hr 46 ft 8:32 AM ICT 正常
Dokmai, Pravet, Bangkok 86.0 °F 90 °F 69 °F 57%  風  8.0 英里每小時 0.00 英寸 / hr 10 ft 8:33 AM ICT 速射

Show More Stations Show Fewer Stations